sensor_id;sensor_type;location;lat;lon;timestamp;temperature;humidity
7958;DHT22;4024;52.172;5.378;2023-04-22T00:02:11;12.40;99.90
7958;DHT22;4024;52.172;5.378;2023-04-22T00:04:42;12.40;99.90
7958;DHT22;4024;52.172;5.378;2023-04-22T00:07:08;12.40;99.90
7958;DHT22;4024;52.172;5.378;2023-04-22T00:09:33;12.30;99.90
7958;DHT22;4024;52.172;5.378;2023-04-22T00:11:59;12.30;99.90
7958;DHT22;4024;52.172;5.378;2023-04-22T00:14:26;12.30;99.90
7958;DHT22;4024;52.172;5.378;2023-04-22T00:16:52;12.30;99.90
7958;DHT22;4024;52.172;5.378;2023-04-22T00:19:18;12.20;99.90
7958;DHT22;4024;52.172;5.378;2023-04-22T00:21:43;12.10;99.90
7958;DHT22;4024;52.172;5.378;2023-04-22T00:24:09;12.10;99.90
7958;DHT22;4024;52.172;5.378;2023-04-22T00:26:34;12.10;99.90
7958;DHT22;4024;52.172;5.378;2023-04-22T00:29:00;12.10;99.90
7958;DHT22;4024;52.172;5.378;2023-04-22T00:31:26;12.00;99.90
7958;DHT22;4024;52.172;5.378;2023-04-22T00:33:52;12.00;99.90
7958;DHT22;4024;52.172;5.378;2023-04-22T00:36:18;11.80;99.90
7958;DHT22;4024;52.172;5.378;2023-04-22T00:38:48;11.90;99.90
7958;DHT22;4024;52.172;5.378;2023-04-22T00:41:14;11.90;99.90
7958;DHT22;4024;52.172;5.378;2023-04-22T00:43:40;11.90;99.90
7958;DHT22;4024;52.172;5.378;2023-04-22T00:46:07;11.90;99.90
7958;DHT22;4024;52.172;5.378;2023-04-22T00:48:37;11.90;99.90
7958;DHT22;4024;52.172;5.378;2023-04-22T00:51:03;11.90;99.90
7958;DHT22;4024;52.172;5.378;2023-04-22T00:53:28;11.80;99.90
7958;DHT22;4024;52.172;5.378;2023-04-22T00:55:54;11.80;99.90
7958;DHT22;4024;52.172;5.378;2023-04-22T00:58:21;11.80;99.90
7958;DHT22;4024;52.172;5.378;2023-04-22T01:00:50;11.70;99.90
7958;DHT22;4024;52.172;5.378;2023-04-22T01:03:16;11.70;99.90
7958;DHT22;4024;52.172;5.378;2023-04-22T01:05:44;11.70;99.90
7958;DHT22;4024;52.172;5.378;2023-04-22T01:08:10;11.60;99.90
7958;DHT22;4024;52.172;5.378;2023-04-22T01:10:37;11.60;99.90
7958;DHT22;4024;52.172;5.378;2023-04-22T01:13:03;11.60;99.90
7958;DHT22;4024;52.172;5.378;2023-04-22T01:15:28;11.60;99.90
7958;DHT22;4024;52.172;5.378;2023-04-22T01:17:54;11.60;99.90
7958;DHT22;4024;52.172;5.378;2023-04-22T01:20:21;11.50;99.90
7958;DHT22;4024;52.172;5.378;2023-04-22T01:22:47;11.50;99.90
7958;DHT22;4024;52.172;5.378;2023-04-22T01:25:15;11.50;99.90
7958;DHT22;4024;52.172;5.378;2023-04-22T01:27:41;11.50;99.90
7958;DHT22;4024;52.172;5.378;2023-04-22T01:30:07;11.50;99.90
7958;DHT22;4024;52.172;5.378;2023-04-22T01:32:34;11.50;99.90
7958;DHT22;4024;52.172;5.378;2023-04-22T01:35:00;11.40;99.90
7958;DHT22;4024;52.172;5.378;2023-04-22T01:37:26;11.40;99.90
7958;DHT22;4024;52.172;5.378;2023-04-22T01:39:53;11.40;99.90
7958;DHT22;4024;52.172;5.378;2023-04-22T01:42:18;11.40;99.90
7958;DHT22;4024;52.172;5.378;2023-04-22T01:44:44;11.30;99.90
7958;DHT22;4024;52.172;5.378;2023-04-22T01:47:10;11.40;99.90
7958;DHT22;4024;52.172;5.378;2023-04-22T01:49:37;11.30;99.90
7958;DHT22;4024;52.172;5.378;2023-04-22T01:52:03;11.30;99.90
7958;DHT22;4024;52.172;5.378;2023-04-22T01:54:28;11.30;99.90
7958;DHT22;4024;52.172;5.378;2023-04-22T01:56:54;11.30;99.90
7958;DHT22;4024;52.172;5.378;2023-04-22T01:59:20;11.30;99.90
7958;DHT22;4024;52.172;5.378;2023-04-22T02:01:46;11.20;99.90
7958;DHT22;4024;52.172;5.378;2023-04-22T02:04:12;11.30;99.90
7958;DHT22;4024;52.172;5.378;2023-04-22T02:06:40;11.20;99.90
7958;DHT22;4024;52.172;5.378;2023-04-22T02:09:07;11.20;99.90
7958;DHT22;4024;52.172;5.378;2023-04-22T02:11:32;11.20;99.90
7958;DHT22;4024;52.172;5.378;2023-04-22T02:13:58;11.20;99.90
7958;DHT22;4024;52.172;5.378;2023-04-22T02:16:25;11.20;99.90
7958;DHT22;4024;52.172;5.378;2023-04-22T02:18:51;11.10;99.90
7958;DHT22;4024;52.172;5.378;2023-04-22T02:21:17;11.10;99.90
7958;DHT22;4024;52.172;5.378;2023-04-22T02:23:42;11.10;99.90
7958;DHT22;4024;52.172;5.378;2023-04-22T02:26:09;11.10;99.90
7958;DHT22;4024;52.172;5.378;2023-04-22T02:28:34;11.00;99.90
7958;DHT22;4024;52.172;5.378;2023-04-22T02:31:00;11.00;99.90
7958;DHT22;4024;52.172;5.378;2023-04-22T02:33:25;11.00;99.90
7958;DHT22;4024;52.172;5.378;2023-04-22T02:35:51;10.90;99.90
7958;DHT22;4024;52.172;5.378;2023-04-22T02:38:17;10.90;99.90
7958;DHT22;4024;52.172;5.378;2023-04-22T02:40:43;10.90;99.90
7958;DHT22;4024;52.172;5.378;2023-04-22T02:43:08;10.90;99.90
7958;DHT22;4024;52.172;5.378;2023-04-22T02:45:34;10.80;99.90
7958;DHT22;4024;52.172;5.378;2023-04-22T02:48:00;10.80;99.90
7958;DHT22;4024;52.172;5.378;2023-04-22T02:50:25;10.80;99.90
7958;DHT22;4024;52.172;5.378;2023-04-22T02:52:51;10.80;99.90
7958;DHT22;4024;52.172;5.378;2023-04-22T02:55:16;10.80;99.90
7958;DHT22;4024;52.172;5.378;2023-04-22T02:57:42;10.80;99.90
7958;DHT22;4024;52.172;5.378;2023-04-22T03:00:08;10.80;99.90
7958;DHT22;4024;52.172;5.378;2023-04-22T03:02:34;10.80;99.90
7958;DHT22;4024;52.172;5.378;2023-04-22T03:05:01;10.70;99.90
7958;DHT22;4024;52.172;5.378;2023-04-22T03:07:26;10.70;99.90
7958;DHT22;4024;52.172;5.378;2023-04-22T03:09:52;10.70;99.90
7958;DHT22;4024;52.172;5.378;2023-04-22T03:12:20;10.70;99.90
7958;DHT22;4024;52.172;5.378;2023-04-22T03:14:45;10.70;99.90
7958;DHT22;4024;52.172;5.378;2023-04-22T03:17:11;10.70;99.90
7958;DHT22;4024;52.172;5.378;2023-04-22T03:19:36;10.70;99.90
7958;DHT22;4024;52.172;5.378;2023-04-22T03:22:02;10.60;99.90
7958;DHT22;4024;52.172;5.378;2023-04-22T03:24:27;10.60;99.90
7958;DHT22;4024;52.172;5.378;2023-04-22T03:26:53;10.60;99.90
7958;DHT22;4024;52.172;5.378;2023-04-22T03:29:18;10.60;99.90
7958;DHT22;4024;52.172;5.378;2023-04-22T03:31:44;10.60;99.90
7958;DHT22;4024;52.172;5.378;2023-04-22T03:34:10;10.60;99.90
7958;DHT22;4024;52.172;5.378;2023-04-22T03:36:35;10.60;99.90
7958;DHT22;4024;52.172;5.378;2023-04-22T03:39:01;10.60;99.90
7958;DHT22;4024;52.172;5.378;2023-04-22T03:41:26;10.60;99.90
7958;DHT22;4024;52.172;5.378;2023-04-22T03:43:52;10.60;99.90
7958;DHT22;4024;52.172;5.378;2023-04-22T03:46:17;10.60;99.90
7958;DHT22;4024;52.172;5.378;2023-04-22T03:48:43;10.60;99.90
7958;DHT22;4024;52.172;5.378;2023-04-22T03:51:09;10.60;99.90
7958;DHT22;4024;52.172;5.378;2023-04-22T03:53:34;10.60;99.90
7958;DHT22;4024;52.172;5.378;2023-04-22T03:56:00;10.60;99.90
7958;DHT22;4024;52.172;5.378;2023-04-22T03:58:25;10.60;99.90
7958;DHT22;4024;52.172;5.378;2023-04-22T04:00:51;10.60;99.90
7958;DHT22;4024;52.172;5.378;2023-04-22T04:03:17;10.60;99.90
7958;DHT22;4024;52.172;5.378;2023-04-22T04:05:43;10.60;99.90
7958;DHT22;4024;52.172;5.378;2023-04-22T04:08:09;10.60;99.90
7958;DHT22;4024;52.172;5.378;2023-04-22T04:10:35;10.70;99.90
7958;DHT22;4024;52.172;5.378;2023-04-22T04:13:01;10.70;99.90
7958;DHT22;4024;52.172;5.378;2023-04-22T04:15:27;10.70;99.90
7958;DHT22;4024;52.172;5.378;2023-04-22T04:17:52;10.70;99.90
7958;DHT22;4024;52.172;5.378;2023-04-22T04:20:21;10.70;99.90
7958;DHT22;4024;52.172;5.378;2023-04-22T04:22:46;10.70;99.90
7958;DHT22;4024;52.172;5.378;2023-04-22T04:25:12;10.70;99.90
7958;DHT22;4024;52.172;5.378;2023-04-22T04:27:37;10.70;99.90
7958;DHT22;4024;52.172;5.378;2023-04-22T04:30:04;10.70;99.90
7958;DHT22;4024;52.172;5.378;2023-04-22T04:32:30;10.70;99.90
7958;DHT22;4024;52.172;5.378;2023-04-22T04:34:58;10.80;99.90
7958;DHT22;4024;52.172;5.378;2023-04-22T04:37:24;10.80;99.90
7958;DHT22;4024;52.172;5.378;2023-04-22T04:39:50;10.80;99.90
7958;DHT22;4024;52.172;5.378;2023-04-22T04:42:16;10.80;99.90
7958;DHT22;4024;52.172;5.378;2023-04-22T04:44:43;10.80;99.90
7958;DHT22;4024;52.172;5.378;2023-04-22T04:47:09;10.90;99.90
7958;DHT22;4024;52.172;5.378;2023-04-22T04:49:34;10.80;99.90
7958;DHT22;4024;52.172;5.378;2023-04-22T04:52:05;10.70;99.90
7958;DHT22;4024;52.172;5.378;2023-04-22T04:54:34;10.80;99.90
7958;DHT22;4024;52.172;5.378;2023-04-22T04:57:00;10.80;99.90
7958;DHT22;4024;52.172;5.378;2023-04-22T04:59:27;10.80;99.90
7958;DHT22;4024;52.172;5.378;2023-04-22T05:01:53;10.80;99.90
7958;DHT22;4024;52.172;5.378;2023-04-22T05:04:18;10.80;99.90
7958;DHT22;4024;52.172;5.378;2023-04-22T05:06:44;10.80;99.90
7958;DHT22;4024;52.172;5.378;2023-04-22T05:09:10;10.80;99.90
7958;DHT22;4024;52.172;5.378;2023-04-22T05:11:35;10.90;99.90
7958;DHT22;4024;52.172;5.378;2023-04-22T05:14:01;10.90;99.90
7958;DHT22;4024;52.172;5.378;2023-04-22T05:16:27;10.90;99.90
7958;DHT22;4024;52.172;5.378;2023-04-22T05:18:53;10.90;99.90
7958;DHT22;4024;52.172;5.378;2023-04-22T05:21:18;10.90;99.90
7958;DHT22;4024;52.172;5.378;2023-04-22T05:23:44;10.90;99.90
7958;DHT22;4024;52.172;5.378;2023-04-22T05:26:10;11.00;99.90
7958;DHT22;4024;52.172;5.378;2023-04-22T05:28:36;11.00;99.90
7958;DHT22;4024;52.172;5.378;2023-04-22T05:31:01;11.00;99.90
7958;DHT22;4024;52.172;5.378;2023-04-22T05:33:27;11.00;99.90
7958;DHT22;4024;52.172;5.378;2023-04-22T05:35:53;11.00;99.90
7958;DHT22;4024;52.172;5.378;2023-04-22T05:38:18;11.10;99.90
7958;DHT22;4024;52.172;5.378;2023-04-22T05:40:44;11.10;99.90
7958;DHT22;4024;52.172;5.378;2023-04-22T05:43:09;11.10;99.90
7958;DHT22;4024;52.172;5.378;2023-04-22T05:45:35;11.10;99.90
7958;DHT22;4024;52.172;5.378;2023-04-22T05:48:00;11.10;99.90
7958;DHT22;4024;52.172;5.378;2023-04-22T05:50:26;11.20;99.90
7958;DHT22;4024;52.172;5.378;2023-04-22T05:52:52;11.20;99.90
7958;DHT22;4024;52.172;5.378;2023-04-22T05:55:18;11.20;99.90
7958;DHT22;4024;52.172;5.378;2023-04-22T05:57:43;11.20;99.90
7958;DHT22;4024;52.172;5.378;2023-04-22T06:00:09;11.30;99.90
7958;DHT22;4024;52.172;5.378;2023-04-22T06:02:35;11.30;99.90
7958;DHT22;4024;52.172;5.378;2023-04-22T06:05:01;11.40;99.90
7958;DHT22;4024;52.172;5.378;2023-04-22T06:07:26;11.40;99.90
7958;DHT22;4024;52.172;5.378;2023-04-22T06:09:52;11.40;99.90
7958;DHT22;4024;52.172;5.378;2023-04-22T06:12:18;11.50;99.90
7958;DHT22;4024;52.172;5.378;2023-04-22T06:14:43;11.50;99.90
7958;DHT22;4024;52.172;5.378;2023-04-22T06:17:09;11.50;99.90
7958;DHT22;4024;52.172;5.378;2023-04-22T06:19:36;11.60;99.90
7958;DHT22;4024;52.172;5.378;2023-04-22T06:22:01;11.60;99.90
7958;DHT22;4024;52.172;5.378;2023-04-22T06:24:27;11.60;99.90
7958;DHT22;4024;52.172;5.378;2023-04-22T06:26:52;11.70;99.90
7958;DHT22;4024;52.172;5.378;2023-04-22T06:29:18;11.70;99.90
7958;DHT22;4024;52.172;5.378;2023-04-22T06:31:44;11.70;99.90
7958;DHT22;4024;52.172;5.378;2023-04-22T06:34:10;11.70;99.90
7958;DHT22;4024;52.172;5.378;2023-04-22T06:36:36;11.80;99.90
7958;DHT22;4024;52.172;5.378;2023-04-22T06:39:04;11.80;99.90
7958;DHT22;4024;52.172;5.378;2023-04-22T06:41:30;11.90;99.90
7958;DHT22;4024;52.172;5.378;2023-04-22T06:43:57;11.90;99.90
7958;DHT22;4024;52.172;5.378;2023-04-22T06:46:23;12.00;99.90
7958;DHT22;4024;52.172;5.378;2023-04-22T06:48:49;12.00;99.90
7958;DHT22;4024;52.172;5.378;2023-04-22T06:51:14;12.10;99.90
7958;DHT22;4024;52.172;5.378;2023-04-22T06:53:40;12.20;99.90
7958;DHT22;4024;52.172;5.378;2023-04-22T06:56:06;12.20;99.90
7958;DHT22;4024;52.172;5.378;2023-04-22T06:58:31;12.30;99.90
7958;DHT22;4024;52.172;5.378;2023-04-22T07:00:57;12.30;99.90
7958;DHT22;4024;52.172;5.378;2023-04-22T07:03:23;12.40;99.90
7958;DHT22;4024;52.172;5.378;2023-04-22T07:05:48;12.40;99.90
7958;DHT22;4024;52.172;5.378;2023-04-22T07:08:14;12.60;99.90
7958;DHT22;4024;52.172;5.378;2023-04-22T07:10:40;12.60;99.90
7958;DHT22;4024;52.172;5.378;2023-04-22T07:13:06;12.70;99.90
7958;DHT22;4024;52.172;5.378;2023-04-22T07:15:31;12.70;99.90
7958;DHT22;4024;52.172;5.378;2023-04-22T07:17:57;12.80;99.90
7958;DHT22;4024;52.172;5.378;2023-04-22T07:20:22;12.90;99.90
7958;DHT22;4024;52.172;5.378;2023-04-22T07:22:48;13.00;99.90
7958;DHT22;4024;52.172;5.378;2023-04-22T07:25:14;13.00;99.90
7958;DHT22;4024;52.172;5.378;2023-04-22T07:27:40;13.20;99.90
7958;DHT22;4024;52.172;5.378;2023-04-22T07:30:07;13.30;99.90
7958;DHT22;4024;52.172;5.378;2023-04-22T07:32:32;13.40;99.90
7958;DHT22;4024;52.172;5.378;2023-04-22T07:34:58;13.50;99.90
7958;DHT22;4024;52.172;5.378;2023-04-22T07:37:23;13.60;99.90
7958;DHT22;4024;52.172;5.378;2023-04-22T07:39:50;13.70;99.90
7958;DHT22;4024;52.172;5.378;2023-04-22T07:42:15;13.80;99.90
7958;DHT22;4024;52.172;5.378;2023-04-22T07:44:41;13.90;99.90
7958;DHT22;4024;52.172;5.378;2023-04-22T07:47:08;13.90;99.90
7958;DHT22;4024;52.172;5.378;2023-04-22T07:49:33;14.00;99.90
7958;DHT22;4024;52.172;5.378;2023-04-22T07:51:59;14.00;99.90
7958;DHT22;4024;52.172;5.378;2023-04-22T07:54:25;14.10;99.90
7958;DHT22;4024;52.172;5.378;2023-04-22T07:56:51;14.10;99.90
7958;DHT22;4024;52.172;5.378;2023-04-22T07:59:16;14.10;99.90
7958;DHT22;4024;52.172;5.378;2023-04-22T08:01:42;14.20;99.90
7958;DHT22;4024;52.172;5.378;2023-04-22T08:04:07;14.20;99.90
7958;DHT22;4024;52.172;5.378;2023-04-22T08:06:33;14.10;99.90
7958;DHT22;4024;52.172;5.378;2023-04-22T08:08:59;14.30;99.90
7958;DHT22;4024;52.172;5.378;2023-04-22T08:11:25;14.30;99.90
7958;DHT22;4024;52.172;5.378;2023-04-22T08:13:51;14.40;99.90
7958;DHT22;4024;52.172;5.378;2023-04-22T08:16:16;14.50;99.90
7958;DHT22;4024;52.172;5.378;2023-04-22T08:18:43;14.60;99.90
7958;DHT22;4024;52.172;5.378;2023-04-22T08:21:08;14.70;99.90
7958;DHT22;4024;52.172;5.378;2023-04-22T08:23:34;14.80;99.90
7958;DHT22;4024;52.172;5.378;2023-04-22T08:25:59;14.90;99.90
7958;DHT22;4024;52.172;5.378;2023-04-22T08:28:26;15.00;99.90
7958;DHT22;4024;52.172;5.378;2023-04-22T08:30:52;15.00;99.90
7958;DHT22;4024;52.172;5.378;2023-04-22T08:33:17;15.10;99.90
7958;DHT22;4024;52.172;5.378;2023-04-22T08:35:43;15.20;99.90
7958;DHT22;4024;52.172;5.378;2023-04-22T08:38:09;15.20;99.90
7958;DHT22;4024;52.172;5.378;2023-04-22T08:40:34;15.30;99.90
7958;DHT22;4024;52.172;5.378;2023-04-22T08:43:01;15.30;99.90
7958;DHT22;4024;52.172;5.378;2023-04-22T08:45:27;15.30;99.90
7958;DHT22;4024;52.172;5.378;2023-04-22T08:47:56;15.40;99.90
7958;DHT22;4024;52.172;5.378;2023-04-22T08:50:22;15.40;99.90
7958;DHT22;4024;52.172;5.378;2023-04-22T08:52:48;15.50;99.90
7958;DHT22;4024;52.172;5.378;2023-04-22T08:55:13;15.50;99.90
7958;DHT22;4024;52.172;5.378;2023-04-22T08:57:40;15.60;99.90
7958;DHT22;4024;52.172;5.378;2023-04-22T09:00:07;15.60;99.90
7958;DHT22;4024;52.172;5.378;2023-04-22T09:02:36;15.60;99.90
7958;DHT22;4024;52.172;5.378;2023-04-22T09:05:05;15.70;99.90
7958;DHT22;4024;52.172;5.378;2023-04-22T09:07:38;15.80;99.90
7958;DHT22;4024;52.172;5.378;2023-04-22T09:10:05;15.90;99.90
7958;DHT22;4024;52.172;5.378;2023-04-22T09:12:32;15.90;99.90
7958;DHT22;4024;52.172;5.378;2023-04-22T09:14:58;15.80;99.90
7958;DHT22;4024;52.172;5.378;2023-04-22T09:17:42;16.10;99.90
7958;DHT22;4024;52.172;5.378;2023-04-22T09:20:09;16.10;99.90
7958;DHT22;4024;52.172;5.378;2023-04-22T09:22:45;16.10;99.90
7958;DHT22;4024;52.172;5.378;2023-04-22T09:25:25;16.20;99.90
7958;DHT22;4024;52.172;5.378;2023-04-22T09:27:57;16.30;99.90
7958;DHT22;4024;52.172;5.378;2023-04-22T09:32:55;16.40;99.90
7958;DHT22;4024;52.172;5.378;2023-04-22T09:35:35;16.50;99.90
7958;DHT22;4024;52.172;5.378;2023-04-22T09:38:03;16.50;99.90
7958;DHT22;4024;52.172;5.378;2023-04-22T09:40:31;16.60;99.90
7958;DHT22;4024;52.172;5.378;2023-04-22T09:43:00;16.70;99.90
7958;DHT22;4024;52.172;5.378;2023-04-22T09:45:32;16.80;99.90
7958;DHT22;4024;52.172;5.378;2023-04-22T09:48:18;16.90;99.90
7958;DHT22;4024;52.172;5.378;2023-04-22T09:50:49;17.00;99.90
7958;DHT22;4024;52.172;5.378;2023-04-22T09:53:17;17.10;99.90
7958;DHT22;4024;52.172;5.378;2023-04-22T09:55:49;17.20;99.90
7958;DHT22;4024;52.172;5.378;2023-04-22T09:58:19;17.30;99.90
7958;DHT22;4024;52.172;5.378;2023-04-22T10:00:50;17.40;99.90
7958;DHT22;4024;52.172;5.378;2023-04-22T10:03:17;17.40;99.90
7958;DHT22;4024;52.172;5.378;2023-04-22T10:05:43;17.50;99.90
7958;DHT22;4024;52.172;5.378;2023-04-22T10:08:11;17.60;99.90
7958;DHT22;4024;52.172;5.378;2023-04-22T10:10:37;17.70;99.90
7958;DHT22;4024;52.172;5.378;2023-04-22T10:13:05;17.70;99.90
7958;DHT22;4024;52.172;5.378;2023-04-22T10:15:33;17.80;99.90
7958;DHT22;4024;52.172;5.378;2023-04-22T10:18:01;17.80;99.90
7958;DHT22;4024;52.172;5.378;2023-04-22T10:20:28;17.90;99.90
7958;DHT22;4024;52.172;5.378;2023-04-22T10:22:55;17.90;99.90
7958;DHT22;4024;52.172;5.378;2023-04-22T10:25:22;18.00;99.90
7958;DHT22;4024;52.172;5.378;2023-04-22T10:28:07;18.00;99.90
7958;DHT22;4024;52.172;5.378;2023-04-22T10:30:35;18.10;99.90
7958;DHT22;4024;52.172;5.378;2023-04-22T10:41:29;18.30;99.90
7958;DHT22;4024;52.172;5.378;2023-04-22T10:43:56;18.30;99.90
7958;DHT22;4024;52.172;5.378;2023-04-22T10:49:19;18.50;99.90
7958;DHT22;4024;52.172;5.378;2023-04-22T10:51:46;18.50;99.90
7958;DHT22;4024;52.172;5.378;2023-04-22T10:57:05;18.70;99.90
7958;DHT22;4024;52.172;5.378;2023-04-22T10:59:33;18.80;99.90
7958;DHT22;4024;52.172;5.378;2023-04-22T11:02:05;18.90;99.90
7958;DHT22;4024;52.172;5.378;2023-04-22T11:04:31;18.90;99.90
7958;DHT22;4024;52.172;5.378;2023-04-22T11:09:58;19.10;99.90
7958;DHT22;4024;52.172;5.378;2023-04-22T11:15:17;19.20;99.90
7958;DHT22;4024;52.172;5.378;2023-04-22T11:17:46;19.30;99.90
7958;DHT22;4024;52.172;5.378;2023-04-22T11:20:14;19.20;99.90
7958;DHT22;4024;52.172;5.378;2023-04-22T11:25:12;19.30;99.90
7958;DHT22;4024;52.172;5.378;2023-04-22T11:27:39;19.30;99.90
7958;DHT22;4024;52.172;5.378;2023-04-22T11:32:52;19.30;99.90
7958;DHT22;4024;52.172;5.378;2023-04-22T11:35:26;19.20;99.90
7958;DHT22;4024;52.172;5.378;2023-04-22T11:38:03;19.30;99.90
7958;DHT22;4024;52.172;5.378;2023-04-22T11:40:35;19.30;99.90
7958;DHT22;4024;52.172;5.378;2023-04-22T11:43:02;19.30;99.90
7958;DHT22;4024;52.172;5.378;2023-04-22T11:45:31;19.30;99.90
7958;DHT22;4024;52.172;5.378;2023-04-22T11:47:57;19.30;99.90
7958;DHT22;4024;52.172;5.378;2023-04-22T11:50:25;19.30;99.90
7958;DHT22;4024;52.172;5.378;2023-04-22T11:52:55;19.20;99.90
7958;DHT22;4024;52.172;5.378;2023-04-22T11:55:27;19.20;99.90
7958;DHT22;4024;52.172;5.378;2023-04-22T12:00:35;19.00;99.90
7958;DHT22;4024;52.172;5.378;2023-04-22T12:03:04;18.90;99.90
7958;DHT22;4024;52.172;5.378;2023-04-22T12:05:53;18.80;99.90
7958;DHT22;4024;52.172;5.378;2023-04-22T12:08:24;18.60;99.90
7958;DHT22;4024;52.172;5.378;2023-04-22T12:10:55;18.50;99.90
7958;DHT22;4024;52.172;5.378;2023-04-22T12:13:33;18.50;99.90
7958;DHT22;4024;52.172;5.378;2023-04-22T12:16:12;18.30;99.90
7958;DHT22;4024;52.172;5.378;2023-04-22T12:18:48;18.20;99.90
7958;DHT22;4024;52.172;5.378;2023-04-22T12:21:16;18.10;99.90
7958;DHT22;4024;52.172;5.378;2023-04-22T12:23:50;18.00;99.90
7958;DHT22;4024;52.172;5.378;2023-04-22T12:26:18;17.90;99.90
7958;DHT22;4024;52.172;5.378;2023-04-22T12:28:44;17.80;99.90
7958;DHT22;4024;52.172;5.378;2023-04-22T12:31:11;17.80;99.90
7958;DHT22;4024;52.172;5.378;2023-04-22T12:33:37;17.80;99.90
7958;DHT22;4024;52.172;5.378;2023-04-22T12:36:04;17.70;99.90
7958;DHT22;4024;52.172;5.378;2023-04-22T12:38:30;17.60;99.90
7958;DHT22;4024;52.172;5.378;2023-04-22T12:40:56;17.70;99.90
7958;DHT22;4024;52.172;5.378;2023-04-22T12:43:23;17.60;99.90
7958;DHT22;4024;52.172;5.378;2023-04-22T12:45:49;17.60;99.90
7958;DHT22;4024;52.172;5.378;2023-04-22T12:48:15;17.60;99.90
7958;DHT22;4024;52.172;5.378;2023-04-22T12:50:40;17.60;99.90
7958;DHT22;4024;52.172;5.378;2023-04-22T12:53:06;17.50;99.90
7958;DHT22;4024;52.172;5.378;2023-04-22T12:55:32;17.60;99.90
7958;DHT22;4024;52.172;5.378;2023-04-22T12:57:58;17.50;99.90
7958;DHT22;4024;52.172;5.378;2023-04-22T13:00:24;17.50;99.90
7958;DHT22;4024;52.172;5.378;2023-04-22T13:02:50;17.40;99.90
7958;DHT22;4024;52.172;5.378;2023-04-22T13:05:16;17.40;99.90
7958;DHT22;4024;52.172;5.378;2023-04-22T13:07:43;17.40;99.90
7958;DHT22;4024;52.172;5.378;2023-04-22T13:10:11;17.40;99.90
7958;DHT22;4024;52.172;5.378;2023-04-22T13:12:38;17.30;99.90
7958;DHT22;4024;52.172;5.378;2023-04-22T13:15:04;17.20;99.90
7958;DHT22;4024;52.172;5.378;2023-04-22T13:17:31;17.20;99.90
7958;DHT22;4024;52.172;5.378;2023-04-22T13:19:57;17.10;99.90
7958;DHT22;4024;52.172;5.378;2023-04-22T13:22:22;17.10;99.90
7958;DHT22;4024;52.172;5.378;2023-04-22T13:24:48;17.00;99.90
7958;DHT22;4024;52.172;5.378;2023-04-22T13:27:14;16.90;99.90
7958;DHT22;4024;52.172;5.378;2023-04-22T13:29:41;16.90;99.90
7958;DHT22;4024;52.172;5.378;2023-04-22T13:32:07;16.90;99.90
7958;DHT22;4024;52.172;5.378;2023-04-22T13:34:33;16.80;99.90
7958;DHT22;4024;52.172;5.378;2023-04-22T13:36:59;16.80;99.90
7958;DHT22;4024;52.172;5.378;2023-04-22T13:39:25;16.70;99.90
7958;DHT22;4024;52.172;5.378;2023-04-22T13:41:50;16.70;99.90
7958;DHT22;4024;52.172;5.378;2023-04-22T13:44:17;16.80;99.90
7958;DHT22;4024;52.172;5.378;2023-04-22T13:46:44;16.70;99.90
7958;DHT22;4024;52.172;5.378;2023-04-22T13:49:09;16.70;99.90
7958;DHT22;4024;52.172;5.378;2023-04-22T13:51:36;16.80;99.90
7958;DHT22;4024;52.172;5.378;2023-04-22T13:54:03;16.80;99.90
7958;DHT22;4024;52.172;5.378;2023-04-22T13:56:29;16.80;99.90
7958;DHT22;4024;52.172;5.378;2023-04-22T13:58:55;16.80;99.90
7958;DHT22;4024;52.172;5.378;2023-04-22T14:01:22;16.90;99.90
7958;DHT22;4024;52.172;5.378;2023-04-22T14:03:48;16.90;99.90
7958;DHT22;4024;52.172;5.378;2023-04-22T14:06:14;16.90;99.90
7958;DHT22;4024;52.172;5.378;2023-04-22T14:08:40;16.90;99.90
7958;DHT22;4024;52.172;5.378;2023-04-22T14:11:06;16.90;99.90
7958;DHT22;4024;52.172;5.378;2023-04-22T14:13:32;16.90;99.90
7958;DHT22;4024;52.172;5.378;2023-04-22T14:15:58;16.90;99.90
7958;DHT22;4024;52.172;5.378;2023-04-22T14:18:25;16.90;99.90
7958;DHT22;4024;52.172;5.378;2023-04-22T14:20:51;16.80;99.90
7958;DHT22;4024;52.172;5.378;2023-04-22T14:23:17;16.90;99.90
7958;DHT22;4024;52.172;5.378;2023-04-22T14:25:46;16.90;99.90
7958;DHT22;4024;52.172;5.378;2023-04-22T14:28:13;16.90;99.90
7958;DHT22;4024;52.172;5.378;2023-04-22T14:30:38;16.90;99.90
7958;DHT22;4024;52.172;5.378;2023-04-22T14:33:05;16.90;99.90
7958;DHT22;4024;52.172;5.378;2023-04-22T14:35:35;16.80;99.90
7958;DHT22;4024;52.172;5.378;2023-04-22T14:38:04;16.80;99.90
7958;DHT22;4024;52.172;5.378;2023-04-22T14:40:30;16.80;99.90
7958;DHT22;4024;52.172;5.378;2023-04-22T14:42:57;16.90;99.90
7958;DHT22;4024;52.172;5.378;2023-04-22T14:45:24;16.80;99.90
7958;DHT22;4024;52.172;5.378;2023-04-22T14:47:50;16.80;99.90
7958;DHT22;4024;52.172;5.378;2023-04-22T14:50:16;16.80;99.90
7958;DHT22;4024;52.172;5.378;2023-04-22T14:52:42;16.80;99.90
7958;DHT22;4024;52.172;5.378;2023-04-22T14:55:07;16.80;99.90
7958;DHT22;4024;52.172;5.378;2023-04-22T14:57:33;16.80;99.90
7958;DHT22;4024;52.172;5.378;2023-04-22T14:59:59;16.80;99.90
7958;DHT22;4024;52.172;5.378;2023-04-22T15:02:24;16.80;99.90
7958;DHT22;4024;52.172;5.378;2023-04-22T15:04:52;16.80;99.90
7958;DHT22;4024;52.172;5.378;2023-04-22T15:07:18;16.80;99.90
7958;DHT22;4024;52.172;5.378;2023-04-22T15:09:43;16.80;99.90
7958;DHT22;4024;52.172;5.378;2023-04-22T15:12:09;16.90;99.90
7958;DHT22;4024;52.172;5.378;2023-04-22T15:14:35;16.80;99.90
7958;DHT22;4024;52.172;5.378;2023-04-22T15:17:01;16.80;99.90
7958;DHT22;4024;52.172;5.378;2023-04-22T15:19:27;16.90;99.90
7958;DHT22;4024;52.172;5.378;2023-04-22T15:21:53;16.80;99.90
7958;DHT22;4024;52.172;5.378;2023-04-22T15:24:18;16.80;99.90
7958;DHT22;4024;52.172;5.378;2023-04-22T15:26:45;16.80;99.90
7958;DHT22;4024;52.172;5.378;2023-04-22T15:29:11;16.80;99.90
7958;DHT22;4024;52.172;5.378;2023-04-22T15:31:36;16.80;99.90
7958;DHT22;4024;52.172;5.378;2023-04-22T15:34:02;16.80;99.90
7958;DHT22;4024;52.172;5.378;2023-04-22T15:36:28;16.80;99.90
7958;DHT22;4024;52.172;5.378;2023-04-22T15:38:54;16.80;99.90
7958;DHT22;4024;52.172;5.378;2023-04-22T15:41:24;16.60;99.90
7958;DHT22;4024;52.172;5.378;2023-04-22T15:43:50;16.70;99.90
7958;DHT22;4024;52.172;5.378;2023-04-22T15:46:20;16.70;99.90
7958;DHT22;4024;52.172;5.378;2023-04-22T15:48:46;16.60;99.90
7958;DHT22;4024;52.172;5.378;2023-04-22T15:51:17;16.60;99.90
7958;DHT22;4024;52.172;5.378;2023-04-22T15:53:43;16.50;99.90
7958;DHT22;4024;52.172;5.378;2023-04-22T15:56:12;16.40;99.90
7958;DHT22;4024;52.172;5.378;2023-04-22T15:58:38;16.30;99.90
7958;DHT22;4024;52.172;5.378;2023-04-22T16:01:04;16.20;99.90
7958;DHT22;4024;52.172;5.378;2023-04-22T16:03:30;16.10;99.90
7958;DHT22;4024;52.172;5.378;2023-04-22T16:05:56;16.00;99.90
7958;DHT22;4024;52.172;5.378;2023-04-22T16:08:21;15.90;99.90
7958;DHT22;4024;52.172;5.378;2023-04-22T16:10:47;15.80;99.90
7958;DHT22;4024;52.172;5.378;2023-04-22T16:13:13;15.70;99.90
7958;DHT22;4024;52.172;5.378;2023-04-22T16:15:39;15.60;99.90
7958;DHT22;4024;52.172;5.378;2023-04-22T16:18:04;15.50;99.90
7958;DHT22;4024;52.172;5.378;2023-04-22T16:20:30;15.40;99.90
7958;DHT22;4024;52.172;5.378;2023-04-22T16:22:56;15.30;99.90
7958;DHT22;4024;52.172;5.378;2023-04-22T16:25:21;15.20;99.90
7958;DHT22;4024;52.172;5.378;2023-04-22T16:27:47;15.20;99.90
7958;DHT22;4024;52.172;5.378;2023-04-22T16:30:13;15.10;99.90